sensor_id;sensor_type;location;lat;lon;timestamp;P1;durP1;ratioP1;P2;durP2;ratioP2
317;SDS011;146;53.448;10.228;2023-11-19T00:00:53;11.43;;;10.27;;
317;SDS011;146;53.448;10.228;2023-11-19T00:03:20;11.53;;;10.30;;
317;SDS011;146;53.448;10.228;2023-11-19T00:05:47;11.27;;;9.60;;
317;SDS011;146;53.448;10.228;2023-11-19T00:08:20;9.48;;;8.65;;
317;SDS011;146;53.448;10.228;2023-11-19T00:10:47;9.80;;;8.77;;
317;SDS011;146;53.448;10.228;2023-11-19T00:13:13;9.07;;;8.17;;
317;SDS011;146;53.448;10.228;2023-11-19T00:15:41;9.20;;;8.37;;
317;SDS011;146;53.448;10.228;2023-11-19T00:18:11;7.90;;;7.20;;
317;SDS011;146;53.448;10.228;2023-11-19T00:20:40;8.90;;;8.00;;
317;SDS011;146;53.448;10.228;2023-11-19T00:23:12;8.80;;;7.90;;
317;SDS011;146;53.448;10.228;2023-11-19T00:25:40;8.07;;;7.37;;
317;SDS011;146;53.448;10.228;2023-11-19T00:28:07;8.20;;;7.40;;
317;SDS011;146;53.448;10.228;2023-11-19T00:30:34;8.03;;;7.27;;
317;SDS011;146;53.448;10.228;2023-11-19T00:33:07;7.97;;;7.20;;
317;SDS011;146;53.448;10.228;2023-11-19T00:35:34;7.30;;;6.60;;
317;SDS011;146;53.448;10.228;2023-11-19T00:38:09;7.03;;;6.43;;
317;SDS011;146;53.448;10.228;2023-11-19T00:40:36;6.90;;;6.30;;
317;SDS011;146;53.448;10.228;2023-11-19T00:43:07;7.27;;;6.30;;
317;SDS011;146;53.448;10.228;2023-11-19T00:45:34;7.57;;;6.70;;
317;SDS011;146;53.448;10.228;2023-11-19T00:48:00;8.00;;;5.70;;
317;SDS011;146;53.448;10.228;2023-11-19T00:50:30;6.70;;;6.10;;
317;SDS011;146;53.448;10.228;2023-11-19T00:52:57;6.00;;;5.50;;
317;SDS011;146;53.448;10.228;2023-11-19T00:55:24;5.50;;;5.10;;
317;SDS011;146;53.448;10.228;2023-11-19T00:57:52;5.27;;;4.87;;
317;SDS011;146;53.448;10.228;2023-11-19T01:00:21;5.50;;;5.00;;
317;SDS011;146;53.448;10.228;2023-11-19T01:02:51;5.30;;;4.90;;
317;SDS011;146;53.448;10.228;2023-11-19T01:05:19;5.93;;;5.37;;
317;SDS011;146;53.448;10.228;2023-11-19T01:08:05;6.20;;;5.70;;
317;SDS011;146;53.448;10.228;2023-11-19T01:10:33;5.60;;;5.15;;
317;SDS011;146;53.448;10.228;2023-11-19T01:13:08;5.03;;;4.63;;
317;SDS011;146;53.448;10.228;2023-11-19T01:15:35;5.50;;;5.00;;
317;SDS011;146;53.448;10.228;2023-11-19T01:18:05;5.07;;;4.60;;
317;SDS011;146;53.448;10.228;2023-11-19T01:20:34;5.10;;;4.70;;
317;SDS011;146;53.448;10.228;2023-11-19T01:23:03;5.87;;;4.40;;
317;SDS011;146;53.448;10.228;2023-11-19T01:25:30;4.90;;;4.50;;
317;SDS011;146;53.448;10.228;2023-11-19T01:27:57;4.47;;;4.07;;
317;SDS011;146;53.448;10.228;2023-11-19T01:30:25;5.40;;;4.57;;
317;SDS011;146;53.448;10.228;2023-11-19T01:32:52;4.43;;;4.00;;
317;SDS011;146;53.448;10.228;2023-11-19T01:35:19;5.00;;;4.60;;
317;SDS011;146;53.448;10.228;2023-11-19T01:37:49;4.30;;;3.90;;
317;SDS011;146;53.448;10.228;2023-11-19T01:40:22;4.80;;;4.40;;
317;SDS011;146;53.448;10.228;2023-11-19T01:42:55;4.93;;;4.53;;
317;SDS011;146;53.448;10.228;2023-11-19T01:45:22;4.23;;;3.93;;
317;SDS011;146;53.448;10.228;2023-11-19T01:47:55;4.40;;;4.10;;
317;SDS011;146;53.448;10.228;2023-11-19T01:50:23;4.23;;;3.90;;
317;SDS011;146;53.448;10.228;2023-11-19T01:52:52;4.27;;;3.90;;
317;SDS011;146;53.448;10.228;2023-11-19T01:55:20;5.20;;;3.93;;
317;SDS011;146;53.448;10.228;2023-11-19T01:57:47;4.00;;;3.70;;
317;SDS011;146;53.448;10.228;2023-11-19T02:00:22;4.10;;;3.67;;
317;SDS011;146;53.448;10.228;2023-11-19T02:02:54;3.20;;;3.00;;
317;SDS011;146;53.448;10.228;2023-11-19T02:05:21;3.97;;;3.67;;
317;SDS011;146;53.448;10.228;2023-11-19T02:07:48;3.70;;;3.40;;
317;SDS011;146;53.448;10.228;2023-11-19T02:10:18;3.73;;;3.43;;
317;SDS011;146;53.448;10.228;2023-11-19T02:12:45;4.00;;;3.70;;
317;SDS011;146;53.448;10.228;2023-11-19T02:15:12;4.32;;;3.92;;
317;SDS011;146;53.448;10.228;2023-11-19T02:17:44;3.93;;;3.53;;
317;SDS011;146;53.448;10.228;2023-11-19T02:20:12;3.33;;;3.13;;
317;SDS011;146;53.448;10.228;2023-11-19T02:22:40;4.27;;;3.70;;
317;SDS011;146;53.448;10.228;2023-11-19T02:25:07;3.43;;;3.20;;
317;SDS011;146;53.448;10.228;2023-11-19T02:27:47;3.78;;;3.47;;
317;SDS011;146;53.448;10.228;2023-11-19T02:30:24;3.40;;;3.20;;
317;SDS011;146;53.448;10.228;2023-11-19T02:32:59;3.40;;;3.10;;
317;SDS011;146;53.448;10.228;2023-11-19T02:35:30;3.38;;;3.17;;
317;SDS011;146;53.448;10.228;2023-11-19T02:38:01;3.40;;;3.10;;
317;SDS011;146;53.448;10.228;2023-11-19T02:40:32;3.67;;;3.38;;
317;SDS011;146;53.448;10.228;2023-11-19T02:43:03;3.70;;;3.50;;
317;SDS011;146;53.448;10.228;2023-11-19T02:45:30;3.47;;;3.17;;
317;SDS011;146;53.448;10.228;2023-11-19T02:47:59;3.90;;;3.60;;
317;SDS011;146;53.448;10.228;2023-11-19T02:50:27;3.50;;;3.20;;
317;SDS011;146;53.448;10.228;2023-11-19T02:53:03;3.67;;;3.38;;
317;SDS011;146;53.448;10.228;2023-11-19T02:55:31;4.13;;;3.83;;
317;SDS011;146;53.448;10.228;2023-11-19T02:58:07;4.00;;;3.60;;
317;SDS011;146;53.448;10.228;2023-11-19T03:00:44;3.70;;;3.50;;
317;SDS011;146;53.448;10.228;2023-11-19T03:03:17;3.43;;;3.23;;
317;SDS011;146;53.448;10.228;2023-11-19T03:05:45;4.73;;;4.33;;
317;SDS011;146;53.448;10.228;2023-11-19T03:08:13;4.10;;;3.80;;
317;SDS011;146;53.448;10.228;2023-11-19T03:10:48;3.90;;;3.60;;
317;SDS011;146;53.448;10.228;2023-11-19T03:13:22;4.10;;;3.80;;
317;SDS011;146;53.448;10.228;2023-11-19T03:15:49;4.00;;;3.70;;
317;SDS011;146;53.448;10.228;2023-11-19T03:18:16;3.90;;;3.60;;
317;SDS011;146;53.448;10.228;2023-11-19T03:20:43;3.60;;;3.40;;
317;SDS011;146;53.448;10.228;2023-11-19T03:23:10;4.38;;;4.05;;
317;SDS011;146;53.448;10.228;2023-11-19T03:25:37;3.60;;;3.30;;
317;SDS011;146;53.448;10.228;2023-11-19T03:28:04;4.00;;;3.70;;
317;SDS011;146;53.448;10.228;2023-11-19T03:30:35;4.10;;;3.70;;
317;SDS011;146;53.448;10.228;2023-11-19T03:33:03;4.40;;;4.07;;
317;SDS011;146;53.448;10.228;2023-11-19T03:35:30;5.20;;;3.67;;
317;SDS011;146;53.448;10.228;2023-11-19T03:37:58;4.10;;;3.80;;
317;SDS011;146;53.448;10.228;2023-11-19T03:40:24;3.53;;;3.23;;
317;SDS011;146;53.448;10.228;2023-11-19T03:42:51;4.60;;;4.20;;
317;SDS011;146;53.448;10.228;2023-11-19T03:45:18;4.60;;;4.20;;
317;SDS011;146;53.448;10.228;2023-11-19T03:47:49;4.00;;;3.70;;
317;SDS011;146;53.448;10.228;2023-11-19T03:50:16;4.33;;;3.97;;
317;SDS011;146;53.448;10.228;2023-11-19T03:52:48;4.30;;;3.90;;
317;SDS011;146;53.448;10.228;2023-11-19T03:55:15;4.20;;;3.80;;
317;SDS011;146;53.448;10.228;2023-11-19T03:57:42;4.10;;;3.80;;
317;SDS011;146;53.448;10.228;2023-11-19T04:00:12;4.57;;;4.27;;
317;SDS011;146;53.448;10.228;2023-11-19T04:02:39;4.30;;;3.90;;
317;SDS011;146;53.448;10.228;2023-11-19T04:05:08;4.50;;;4.05;;
317;SDS011;146;53.448;10.228;2023-11-19T04:07:35;3.77;;;3.57;;
317;SDS011;146;53.448;10.228;2023-11-19T04:10:08;4.27;;;3.97;;
317;SDS011;146;53.448;10.228;2023-11-19T04:12:35;3.73;;;3.43;;
317;SDS011;146;53.448;10.228;2023-11-19T04:15:02;4.53;;;4.17;;
317;SDS011;146;53.448;10.228;2023-11-19T04:17:30;4.17;;;3.87;;
317;SDS011;146;53.448;10.228;2023-11-19T04:20:00;4.00;;;3.67;;
317;SDS011;146;53.448;10.228;2023-11-19T04:22:36;4.70;;;4.30;;
317;SDS011;146;53.448;10.228;2023-11-19T04:25:03;3.90;;;3.60;;
317;SDS011;146;53.448;10.228;2023-11-19T04:27:31;3.83;;;3.53;;
317;SDS011;146;53.448;10.228;2023-11-19T04:30:12;3.60;;;3.30;;
317;SDS011;146;53.448;10.228;2023-11-19T04:32:39;3.70;;;3.40;;
317;SDS011;146;53.448;10.228;2023-11-19T04:35:07;3.97;;;3.67;;
317;SDS011;146;53.448;10.228;2023-11-19T04:37:42;3.80;;;3.50;;
317;SDS011;146;53.448;10.228;2023-11-19T04:40:09;4.20;;;3.90;;
317;SDS011;146;53.448;10.228;2023-11-19T04:42:39;3.90;;;3.50;;
317;SDS011;146;53.448;10.228;2023-11-19T04:45:06;3.50;;;3.30;;
317;SDS011;146;53.448;10.228;2023-11-19T04:47:38;4.37;;;3.70;;
317;SDS011;146;53.448;10.228;2023-11-19T04:50:05;3.55;;;3.35;;
317;SDS011;146;53.448;10.228;2023-11-19T04:52:36;5.57;;;3.70;;
317;SDS011;146;53.448;10.228;2023-11-19T04:55:07;4.40;;;4.10;;
317;SDS011;146;53.448;10.228;2023-11-19T04:57:36;3.53;;;3.33;;
317;SDS011;146;53.448;10.228;2023-11-19T05:00:03;3.80;;;3.50;;
317;SDS011;146;53.448;10.228;2023-11-19T05:02:32;3.57;;;3.33;;
317;SDS011;146;53.448;10.228;2023-11-19T05:05:02;4.30;;;4.00;;
317;SDS011;146;53.448;10.228;2023-11-19T05:07:30;3.47;;;3.17;;
317;SDS011;146;53.448;10.228;2023-11-19T05:09:57;3.80;;;3.47;;
317;SDS011;146;53.448;10.228;2023-11-19T05:12:25;4.00;;;3.60;;
317;SDS011;146;53.448;10.228;2023-11-19T05:14:54;3.93;;;3.63;;
317;SDS011;146;53.448;10.228;2023-11-19T05:17:21;3.17;;;2.90;;
317;SDS011;146;53.448;10.228;2023-11-19T05:19:47;4.10;;;3.70;;
317;SDS011;146;53.448;10.228;2023-11-19T05:22:17;3.80;;;3.57;;
317;SDS011;146;53.448;10.228;2023-11-19T05:24:45;3.93;;;3.63;;
317;SDS011;146;53.448;10.228;2023-11-19T05:27:16;4.37;;;4.00;;
317;SDS011;146;53.448;10.228;2023-11-19T05:29:45;4.93;;;4.37;;
317;SDS011;146;53.448;10.228;2023-11-19T05:32:11;7.03;;;4.80;;
317;SDS011;146;53.448;10.228;2023-11-19T05:34:43;5.10;;;4.60;;
317;SDS011;146;53.448;10.228;2023-11-19T05:37:10;7.87;;;6.20;;
317;SDS011;146;53.448;10.228;2023-11-19T05:39:36;6.03;;;5.43;;
317;SDS011;146;53.448;10.228;2023-11-19T05:42:06;8.60;;;6.93;;
317;SDS011;146;53.448;10.228;2023-11-19T05:44:34;7.53;;;6.50;;
317;SDS011;146;53.448;10.228;2023-11-19T05:47:06;8.32;;;7.18;;
317;SDS011;146;53.448;10.228;2023-11-19T05:49:33;8.10;;;7.23;;
317;SDS011;146;53.448;10.228;2023-11-19T05:52:00;10.70;;;8.67;;
317;SDS011;146;53.448;10.228;2023-11-19T05:54:35;10.00;;;8.37;;
317;SDS011;146;53.448;10.228;2023-11-19T05:57:10;10.57;;;8.90;;
317;SDS011;146;53.448;10.228;2023-11-19T05:59:39;9.20;;;8.30;;
317;SDS011;146;53.448;10.228;2023-11-19T06:02:07;12.73;;;9.13;;
317;SDS011;146;53.448;10.228;2023-11-19T06:04:33;11.52;;;9.35;;
317;SDS011;146;53.448;10.228;2023-11-19T06:07:02;10.93;;;8.20;;
317;SDS011;146;53.448;10.228;2023-11-19T06:09:30;10.53;;;9.43;;
317;SDS011;146;53.448;10.228;2023-11-19T06:11:58;14.83;;;11.50;;
317;SDS011;146;53.448;10.228;2023-11-19T06:14:27;16.02;;;12.63;;
317;SDS011;146;53.448;10.228;2023-11-19T06:16:53;18.67;;;12.40;;
317;SDS011;146;53.448;10.228;2023-11-19T06:19:24;18.70;;;13.23;;
317;SDS011;146;53.448;10.228;2023-11-19T06:21:52;20.93;;;12.73;;
317;SDS011;146;53.448;10.228;2023-11-19T06:24:18;23.90;;;14.17;;
317;SDS011;146;53.448;10.228;2023-11-19T06:26:45;21.80;;;13.07;;
317;SDS011;146;53.448;10.228;2023-11-19T06:29:15;23.40;;;14.67;;
317;SDS011;146;53.448;10.228;2023-11-19T06:31:44;18.00;;;13.20;;
317;SDS011;146;53.448;10.228;2023-11-19T06:34:11;22.40;;;13.98;;
317;SDS011;146;53.448;10.228;2023-11-19T06:36:40;24.30;;;14.90;;
317;SDS011;146;53.448;10.228;2023-11-19T06:39:08;23.50;;;14.10;;
317;SDS011;146;53.448;10.228;2023-11-19T06:41:45;19.23;;;12.57;;
317;SDS011;146;53.448;10.228;2023-11-19T06:44:12;21.90;;;14.60;;
317;SDS011;146;53.448;10.228;2023-11-19T06:46:39;21.87;;;16.37;;
317;SDS011;146;53.448;10.228;2023-11-19T06:49:06;23.73;;;14.17;;
317;SDS011;146;53.448;10.228;2023-11-19T06:51:36;20.30;;;13.50;;
317;SDS011;146;53.448;10.228;2023-11-19T06:54:09;23.00;;;14.47;;
317;SDS011;146;53.448;10.228;2023-11-19T06:56:36;26.60;;;15.97;;
317;SDS011;146;53.448;10.228;2023-11-19T06:59:12;22.70;;;14.70;;
317;SDS011;146;53.448;10.228;2023-11-19T07:01:39;24.13;;;13.53;;
317;SDS011;146;53.448;10.228;2023-11-19T07:04:10;30.60;;;13.85;;
317;SDS011;146;53.448;10.228;2023-11-19T07:06:40;23.00;;;13.30;;
317;SDS011;146;53.448;10.228;2023-11-19T07:09:10;17.80;;;13.07;;
317;SDS011;146;53.448;10.228;2023-11-19T07:11:39;18.50;;;12.03;;
317;SDS011;146;53.448;10.228;2023-11-19T07:14:06;17.73;;;12.03;;
317;SDS011;146;53.448;10.228;2023-11-19T07:16:33;25.63;;;12.80;;
317;SDS011;146;53.448;10.228;2023-11-19T07:19:02;19.58;;;12.32;;
317;SDS011;146;53.448;10.228;2023-11-19T07:21:30;19.97;;;13.43;;
317;SDS011;146;53.448;10.228;2023-11-19T07:23:58;19.27;;;10.60;;
317;SDS011;146;53.448;10.228;2023-11-19T07:26:26;21.13;;;10.47;;
317;SDS011;146;53.448;10.228;2023-11-19T07:28:53;14.60;;;10.90;;
317;SDS011;146;53.448;10.228;2023-11-19T07:31:23;18.87;;;11.87;;
317;SDS011;146;53.448;10.228;2023-11-19T07:33:50;22.43;;;11.70;;
317;SDS011;146;53.448;10.228;2023-11-19T07:36:17;31.27;;;12.90;;
317;SDS011;146;53.448;10.228;2023-11-19T07:38:45;29.60;;;12.63;;
317;SDS011;146;53.448;10.228;2023-11-19T07:41:11;33.40;;;15.70;;
317;SDS011;146;53.448;10.228;2023-11-19T07:43:44;19.03;;;11.80;;
317;SDS011;146;53.448;10.228;2023-11-19T07:46:11;24.42;;;12.00;;
317;SDS011;146;53.448;10.228;2023-11-19T07:48:38;29.67;;;12.00;;
317;SDS011;146;53.448;10.228;2023-11-19T07:51:12;25.30;;;12.20;;
317;SDS011;146;53.448;10.228;2023-11-19T07:53:39;19.23;;;10.77;;
317;SDS011;146;53.448;10.228;2023-11-19T07:56:08;26.10;;;11.23;;
317;SDS011;146;53.448;10.228;2023-11-19T07:58:35;24.65;;;11.27;;
317;SDS011;146;53.448;10.228;2023-11-19T08:01:04;20.77;;;12.97;;
317;SDS011;146;53.448;10.228;2023-11-19T08:03:31;17.73;;;10.40;;
317;SDS011;146;53.448;10.228;2023-11-19T08:05:59;22.27;;;11.00;;
317;SDS011;146;53.448;10.228;2023-11-19T08:08:46;19.87;;;10.63;;
317;SDS011;146;53.448;10.228;2023-11-19T08:11:16;26.43;;;10.53;;
317;SDS011;146;53.448;10.228;2023-11-19T08:13:47;14.90;;;9.43;;
317;SDS011;146;53.448;10.228;2023-11-19T08:16:16;21.48;;;9.10;;
317;SDS011;146;53.448;10.228;2023-11-19T08:18:43;24.17;;;8.57;;
317;SDS011;146;53.448;10.228;2023-11-19T08:21:12;25.07;;;9.90;;
317;SDS011;146;53.448;10.228;2023-11-19T08:23:40;25.40;;;9.10;;
317;SDS011;146;53.448;10.228;2023-11-19T08:26:07;20.67;;;8.60;;
317;SDS011;146;53.448;10.228;2023-11-19T08:28:37;17.87;;;8.10;;
317;SDS011;146;53.448;10.228;2023-11-19T08:31:06;16.23;;;8.57;;
317;SDS011;146;53.448;10.228;2023-11-19T08:33:40;17.43;;;9.20;;
317;SDS011;146;53.448;10.228;2023-11-19T08:36:07;21.60;;;9.67;;
317;SDS011;146;53.448;10.228;2023-11-19T08:38:35;21.70;;;9.13;;
317;SDS011;146;53.448;10.228;2023-11-19T08:41:02;25.60;;;8.20;;
317;SDS011;146;53.448;10.228;2023-11-19T08:43:37;25.30;;;8.77;;
317;SDS011;146;53.448;10.228;2023-11-19T08:46:12;22.97;;;9.00;;
317;SDS011;146;53.448;10.228;2023-11-19T08:48:38;22.90;;;8.53;;
317;SDS011;146;53.448;10.228;2023-11-19T08:51:13;17.43;;;7.13;;
317;SDS011;146;53.448;10.228;2023-11-19T08:53:52;17.27;;;6.60;;
317;SDS011;146;53.448;10.228;2023-11-19T08:56:22;22.30;;;7.87;;
317;SDS011;146;53.448;10.228;2023-11-19T08:58:52;12.93;;;6.13;;
317;SDS011;146;53.448;10.228;2023-11-19T09:01:18;19.53;;;6.47;;
317;SDS011;146;53.448;10.228;2023-11-19T09:03:46;14.67;;;5.67;;
317;SDS011;146;53.448;10.228;2023-11-19T09:06:13;14.37;;;5.77;;
317;SDS011;146;53.448;10.228;2023-11-19T09:08:43;16.90;;;6.03;;
317;SDS011;146;53.448;10.228;2023-11-19T09:11:13;18.60;;;7.73;;
317;SDS011;146;53.448;10.228;2023-11-19T09:13:42;13.00;;;5.70;;
317;SDS011;146;53.448;10.228;2023-11-19T09:16:11;19.57;;;6.10;;
317;SDS011;146;53.448;10.228;2023-11-19T09:18:38;16.87;;;6.10;;
317;SDS011;146;53.448;10.228;2023-11-19T09:21:06;16.87;;;6.47;;
317;SDS011;146;53.448;10.228;2023-11-19T09:23:33;27.33;;;6.40;;
317;SDS011;146;53.448;10.228;2023-11-19T09:26:04;21.33;;;5.90;;
317;SDS011;146;53.448;10.228;2023-11-19T09:28:31;17.87;;;6.30;;
317;SDS011;146;53.448;10.228;2023-11-19T09:30:58;20.67;;;6.83;;
317;SDS011;146;53.448;10.228;2023-11-19T09:33:25;20.03;;;7.13;;
317;SDS011;146;53.448;10.228;2023-11-19T09:35:52;13.27;;;5.40;;
317;SDS011;146;53.448;10.228;2023-11-19T09:38:20;20.47;;;7.20;;
317;SDS011;146;53.448;10.228;2023-11-19T09:40:47;17.73;;;6.57;;
317;SDS011;146;53.448;10.228;2023-11-19T09:43:14;19.77;;;6.70;;
317;SDS011;146;53.448;10.228;2023-11-19T09:45:46;27.53;;;7.60;;
317;SDS011;146;53.448;10.228;2023-11-19T09:48:16;13.90;;;6.53;;
317;SDS011;146;53.448;10.228;2023-11-19T09:50:44;17.45;;;6.35;;
317;SDS011;146;53.448;10.228;2023-11-19T09:53:13;14.07;;;6.20;;
317;SDS011;146;53.448;10.228;2023-11-19T09:55:44;21.67;;;8.13;;
317;SDS011;146;53.448;10.228;2023-11-19T09:58:11;20.47;;;6.30;;
317;SDS011;146;53.448;10.228;2023-11-19T10:00:41;16.90;;;6.63;;
317;SDS011;146;53.448;10.228;2023-11-19T10:03:08;24.95;;;7.53;;
317;SDS011;146;53.448;10.228;2023-11-19T10:05:38;20.23;;;8.23;;
317;SDS011;146;53.448;10.228;2023-11-19T10:08:05;20.57;;;7.00;;
317;SDS011;146;53.448;10.228;2023-11-19T10:10:33;16.37;;;6.90;;
317;SDS011;146;53.448;10.228;2023-11-19T10:13:01;19.00;;;6.10;;
317;SDS011;146;53.448;10.228;2023-11-19T10:15:29;14.87;;;5.93;;
317;SDS011;146;53.448;10.228;2023-11-19T10:18:03;14.77;;;6.07;;
317;SDS011;146;53.448;10.228;2023-11-19T10:20:34;20.67;;;6.63;;
317;SDS011;146;53.448;10.228;2023-11-19T10:23:02;19.07;;;6.10;;
317;SDS011;146;53.448;10.228;2023-11-19T10:25:29;18.90;;;7.27;;
317;SDS011;146;53.448;10.228;2023-11-19T10:27:57;16.25;;;6.93;;
317;SDS011;146;53.448;10.228;2023-11-19T10:30:25;19.40;;;6.60;;
317;SDS011;146;53.448;10.228;2023-11-19T10:33:04;21.02;;;7.35;;
317;SDS011;146;53.448;10.228;2023-11-19T10:35:32;17.60;;;6.03;;
317;SDS011;146;53.448;10.228;2023-11-19T10:38:00;17.20;;;6.32;;
317;SDS011;146;53.448;10.228;2023-11-19T10:40:37;15.77;;;6.30;;
317;SDS011;146;53.448;10.228;2023-11-19T10:43:05;22.33;;;6.40;;
317;SDS011;146;53.448;10.228;2023-11-19T10:45:37;18.87;;;6.17;;
317;SDS011;146;53.448;10.228;2023-11-19T10:48:05;19.03;;;6.53;;
317;SDS011;146;53.448;10.228;2023-11-19T10:50:33;21.47;;;7.47;;
317;SDS011;146;53.448;10.228;2023-11-19T10:53:01;19.30;;;7.40;;
317;SDS011;146;53.448;10.228;2023-11-19T10:55:30;18.70;;;7.17;;
317;SDS011;146;53.448;10.228;2023-11-19T10:58:00;18.20;;;6.20;;
317;SDS011;146;53.448;10.228;2023-11-19T11:00:37;23.77;;;6.70;;
317;SDS011;146;53.448;10.228;2023-11-19T11:03:09;11.80;;;5.40;;
317;SDS011;146;53.448;10.228;2023-11-19T11:05:37;20.90;;;5.60;;
317;SDS011;146;53.448;10.228;2023-11-19T11:08:07;18.83;;;5.57;;
317;SDS011;146;53.448;10.228;2023-11-19T11:10:35;18.33;;;8.53;;
317;SDS011;146;53.448;10.228;2023-11-19T11:13:07;17.50;;;6.17;;
317;SDS011;146;53.448;10.228;2023-11-19T11:15:37;16.40;;;6.47;;
317;SDS011;146;53.448;10.228;2023-11-19T11:18:10;21.03;;;5.90;;
317;SDS011;146;53.448;10.228;2023-11-19T11:20:36;17.43;;;6.23;;
317;SDS011;146;53.448;10.228;2023-11-19T11:26:21;17.40;;;7.53;;
317;SDS011;146;53.448;10.228;2023-11-19T11:29:04;26.73;;;6.60;;
317;SDS011;146;53.448;10.228;2023-11-19T11:31:43;19.27;;;6.73;;
317;SDS011;146;53.448;10.228;2023-11-19T11:34:27;19.35;;;8.60;;
317;SDS011;146;53.448;10.228;2023-11-19T11:37:16;26.50;;;6.23;;
317;SDS011;146;53.448;10.228;2023-11-19T11:39:45;21.77;;;6.90;;
317;SDS011;146;53.448;10.228;2023-11-19T11:42:32;18.40;;;6.10;;
317;SDS011;146;53.448;10.228;2023-11-19T11:44:59;20.50;;;6.87;;
317;SDS011;146;53.448;10.228;2023-11-19T11:50:35;22.73;;;8.80;;
317;SDS011;146;53.448;10.228;2023-11-19T11:53:13;19.90;;;6.90;;
317;SDS011;146;53.448;10.228;2023-11-19T11:55:51;21.83;;;7.70;;
317;SDS011;146;53.448;10.228;2023-11-19T11:58:28;16.73;;;7.60;;
317;SDS011;146;53.448;10.228;2023-11-19T12:00:57;19.80;;;7.00;;
317;SDS011;146;53.448;10.228;2023-11-19T12:03:26;19.37;;;7.20;;
317;SDS011;146;53.448;10.228;2023-11-19T12:05:55;20.40;;;6.63;;
317;SDS011;146;53.448;10.228;2023-11-19T12:08:33;20.37;;;6.80;;
317;SDS011;146;53.448;10.228;2023-11-19T12:11:01;19.73;;;7.90;;
317;SDS011;146;53.448;10.228;2023-11-19T12:13:42;18.73;;;8.90;;
317;SDS011;146;53.448;10.228;2023-11-19T12:16:12;26.00;;;6.70;;
317;SDS011;146;53.448;10.228;2023-11-19T12:18:40;15.95;;;7.38;;
317;SDS011;146;53.448;10.228;2023-11-19T12:21:08;17.10;;;5.90;;
317;SDS011;146;53.448;10.228;2023-11-19T12:23:44;14.68;;;6.03;;
317;SDS011;146;53.448;10.228;2023-11-19T12:29:01;19.07;;;5.77;;
317;SDS011;146;53.448;10.228;2023-11-19T12:31:31;21.67;;;6.50;;
317;SDS011;146;53.448;10.228;2023-11-19T12:34:01;16.65;;;5.90;;
317;SDS011;146;53.448;10.228;2023-11-19T12:36:39;17.80;;;6.07;;
317;SDS011;146;53.448;10.228;2023-11-19T12:39:08;17.07;;;7.60;;
317;SDS011;146;53.448;10.228;2023-11-19T12:41:50;23.70;;;6.47;;
317;SDS011;146;53.448;10.228;2023-11-19T12:44:18;16.15;;;5.32;;
317;SDS011;146;53.448;10.228;2023-11-19T12:46:45;18.90;;;6.10;;
317;SDS011;146;53.448;10.228;2023-11-19T12:49:11;15.53;;;5.20;;
317;SDS011;146;53.448;10.228;2023-11-19T12:51:42;13.27;;;5.07;;
317;SDS011;146;53.448;10.228;2023-11-19T12:54:09;17.73;;;5.35;;
317;SDS011;146;53.448;10.228;2023-11-19T12:56:36;16.50;;;5.13;;
317;SDS011;146;53.448;10.228;2023-11-19T12:59:10;15.50;;;5.33;;
317;SDS011;146;53.448;10.228;2023-11-19T13:01:38;16.13;;;5.05;;
317;SDS011;146;53.448;10.228;2023-11-19T13:04:15;13.00;;;5.80;;
317;SDS011;146;53.448;10.228;2023-11-19T13:06:46;15.10;;;4.70;;
317;SDS011;146;53.448;10.228;2023-11-19T13:09:23;19.27;;;6.90;;
317;SDS011;146;53.448;10.228;2023-11-19T13:11:51;28.03;;;7.67;;
317;SDS011;146;53.448;10.228;2023-11-19T13:14:35;11.50;;;6.17;;
317;SDS011;146;53.448;10.228;2023-11-19T13:17:02;12.70;;;5.60;;
317;SDS011;146;53.448;10.228;2023-11-19T13:19:33;13.17;;;4.70;;
317;SDS011;146;53.448;10.228;2023-11-19T13:22:01;12.13;;;4.93;;
317;SDS011;146;53.448;10.228;2023-11-19T13:24:28;11.70;;;5.60;;
317;SDS011;146;53.448;10.228;2023-11-19T13:26:55;13.70;;;5.80;;
317;SDS011;146;53.448;10.228;2023-11-19T13:29:23;18.87;;;5.93;;
317;SDS011;146;53.448;10.228;2023-11-19T13:31:50;11.83;;;4.70;;
317;SDS011;146;53.448;10.228;2023-11-19T13:34:20;16.10;;;5.23;;
317;SDS011;146;53.448;10.228;2023-11-19T13:36:47;11.57;;;4.97;;
317;SDS011;146;53.448;10.228;2023-11-19T13:39:21;17.27;;;5.60;;
317;SDS011;146;53.448;10.228;2023-11-19T13:41:48;16.33;;;5.10;;
317;SDS011;146;53.448;10.228;2023-11-19T13:44:19;15.20;;;4.85;;
317;SDS011;146;53.448;10.228;2023-11-19T13:46:45;14.60;;;6.17;;
317;SDS011;146;53.448;10.228;2023-11-19T13:49:12;13.43;;;5.70;;
317;SDS011;146;53.448;10.228;2023-11-19T13:51:44;10.77;;;4.97;;
317;SDS011;146;53.448;10.228;2023-11-19T13:54:18;13.23;;;6.20;;
317;SDS011;146;53.448;10.228;2023-11-19T13:56:49;17.40;;;5.67;;
317;SDS011;146;53.448;10.228;2023-11-19T13:59:19;8.40;;;4.73;;
317;SDS011;146;53.448;10.228;2023-11-19T14:01:46;25.73;;;6.30;;
317;SDS011;146;53.448;10.228;2023-11-19T14:04:12;20.30;;;5.40;;
317;SDS011;146;53.448;10.228;2023-11-19T14:06:39;11.20;;;5.00;;
317;SDS011;146;53.448;10.228;2023-11-19T14:09:06;14.07;;;5.17;;
317;SDS011;146;53.448;10.228;2023-11-19T14:11:33;11.60;;;5.60;;
317;SDS011;146;53.448;10.228;2023-11-19T14:14:01;17.13;;;6.43;;
317;SDS011;146;53.448;10.228;2023-11-19T14:16:28;20.80;;;6.50;;
317;SDS011;146;53.448;10.228;2023-11-19T14:18:55;20.25;;;6.28;;
317;SDS011;146;53.448;10.228;2023-11-19T14:21:22;15.57;;;5.77;;
317;SDS011;146;53.448;10.228;2023-11-19T14:23:52;21.50;;;7.05;;
317;SDS011;146;53.448;10.228;2023-11-19T14:26:19;14.70;;;6.20;;
317;SDS011;146;53.448;10.228;2023-11-19T14:28:46;15.87;;;6.20;;
317;SDS011;146;53.448;10.228;2023-11-19T14:31:17;18.40;;;6.87;;
317;SDS011;146;53.448;10.228;2023-11-19T14:33:44;11.57;;;5.60;;
317;SDS011;146;53.448;10.228;2023-11-19T14:36:11;10.07;;;7.30;;
317;SDS011;146;53.448;10.228;2023-11-19T14:38:38;16.67;;;6.80;;
317;SDS011;146;53.448;10.228;2023-11-19T14:41:05;17.37;;;6.83;;
317;SDS011;146;53.448;10.228;2023-11-19T14:43:32;19.93;;;6.57;;
317;SDS011;146;53.448;10.228;2023-11-19T14:45:59;15.20;;;5.93;;
317;SDS011;146;53.448;10.228;2023-11-19T14:48:31;12.70;;;6.50;;
317;SDS011;146;53.448;10.228;2023-11-19T14:50:58;13.90;;;5.73;;
317;SDS011;146;53.448;10.228;2023-11-19T14:53:28;14.27;;;5.53;;
317;SDS011;146;53.448;10.228;2023-11-19T14:55:55;22.20;;;6.40;;
317;SDS011;146;53.448;10.228;2023-11-19T14:58:22;16.53;;;6.40;;
317;SDS011;146;53.448;10.228;2023-11-19T15:00:53;18.10;;;6.63;;
317;SDS011;146;53.448;10.228;2023-11-19T15:03:20;15.50;;;6.77;;
317;SDS011;146;53.448;10.228;2023-11-19T15:05:48;15.40;;;6.40;;
317;SDS011;146;53.448;10.228;2023-11-19T15:08:16;9.80;;;6.30;;
317;SDS011;146;53.448;10.228;2023-11-19T15:10:42;14.80;;;5.83;;
317;SDS011;146;53.448;10.228;2023-11-19T15:13:10;12.50;;;5.70;;
317;SDS011;146;53.448;10.228;2023-11-19T15:15:43;12.57;;;6.53;;
317;SDS011;146;53.448;10.228;2023-11-19T15:18:10;18.03;;;6.60;;
317;SDS011;146;53.448;10.228;2023-11-19T15:20:57;18.97;;;7.60;;
317;SDS011;146;53.448;10.228;2023-11-19T15:23:42;17.30;;;6.87;;
317;SDS011;146;53.448;10.228;2023-11-19T15:26:10;15.90;;;6.37;;
317;SDS011;146;53.448;10.228;2023-11-19T15:28:40;9.60;;;5.50;;
317;SDS011;146;53.448;10.228;2023-11-19T15:31:07;13.93;;;4.90;;
317;SDS011;146;53.448;10.228;2023-11-19T15:33:35;14.35;;;4.63;;
317;SDS011;146;53.448;10.228;2023-11-19T15:36:03;15.40;;;7.53;;
317;SDS011;146;53.448;10.228;2023-11-19T15:38:32;15.10;;;5.63;;
317;SDS011;146;53.448;10.228;2023-11-19T15:41:06;14.27;;;6.00;;
317;SDS011;146;53.448;10.228;2023-11-19T15:43:36;14.77;;;4.77;;